CPX657 Details

Departure: Southwest Florida International Airport (KRSW)
Arrival: Miami International Airport (KMIA)
Route: CYY CYY9


Current Weather Information
KRSW 221053Z 35003KT 10SM CLR 14/11 A3006 RMK AO2 SLP178 T01440106
KMIA 221053Z 33009G15KT 10SM CLR 15/12 A3005 RMK AO2 SLP176 T01500117